sensor_id;sensor_type;location;lat;lon;timestamp;temperature;humidity
16871;DHT22;8552;48.120;-1.456;2023-11-19T00:01:40;14.40;99.90
16871;DHT22;8552;48.120;-1.456;2023-11-19T00:04:06;14.40;99.90
16871;DHT22;8552;48.120;-1.456;2023-11-19T00:06:31;14.30;99.90
16871;DHT22;8552;48.120;-1.456;2023-11-19T00:08:57;14.40;99.90
16871;DHT22;8552;48.120;-1.456;2023-11-19T00:11:23;14.40;99.90
16871;DHT22;8552;48.120;-1.456;2023-11-19T00:13:48;14.70;99.90
16871;DHT22;8552;48.120;-1.456;2023-11-19T00:16:14;14.40;99.90
16871;DHT22;8552;48.120;-1.456;2023-11-19T00:18:40;14.40;99.90
16871;DHT22;8552;48.120;-1.456;2023-11-19T00:21:05;14.50;99.90
16871;DHT22;8552;48.120;-1.456;2023-11-19T00:23:33;14.40;99.90
16871;DHT22;8552;48.120;-1.456;2023-11-19T00:25:59;14.50;99.90
16871;DHT22;8552;48.120;-1.456;2023-11-19T00:28:24;14.60;99.90
16871;DHT22;8552;48.120;-1.456;2023-11-19T00:30:50;14.40;99.90
16871;DHT22;8552;48.120;-1.456;2023-11-19T00:33:16;14.50;99.90
16871;DHT22;8552;48.120;-1.456;2023-11-19T00:35:41;14.50;99.90
16871;DHT22;8552;48.120;-1.456;2023-11-19T00:38:07;14.60;99.90
16871;DHT22;8552;48.120;-1.456;2023-11-19T00:40:33;14.40;99.90
16871;DHT22;8552;48.120;-1.456;2023-11-19T00:42:58;14.30;99.90
16871;DHT22;8552;48.120;-1.456;2023-11-19T00:45:24;14.30;99.90
16871;DHT22;8552;48.120;-1.456;2023-11-19T00:47:50;14.30;99.90
16871;DHT22;8552;48.120;-1.456;2023-11-19T00:50:16;14.30;99.90
16871;DHT22;8552;48.120;-1.456;2023-11-19T00:52:42;14.40;99.90
16871;DHT22;8552;48.120;-1.456;2023-11-19T00:55:08;14.20;99.90
16871;DHT22;8552;48.120;-1.456;2023-11-19T00:57:34;14.20;99.90
16871;DHT22;8552;48.120;-1.456;2023-11-19T01:00:00;14.00;99.90
16871;DHT22;8552;48.120;-1.456;2023-11-19T01:02:26;14.00;99.90
16871;DHT22;8552;48.120;-1.456;2023-11-19T01:04:52;14.00;99.90
16871;DHT22;8552;48.120;-1.456;2023-11-19T01:07:18;14.20;99.90
16871;DHT22;8552;48.120;-1.456;2023-11-19T01:09:43;14.10;99.90
16871;DHT22;8552;48.120;-1.456;2023-11-19T01:12:09;14.10;99.90
16871;DHT22;8552;48.120;-1.456;2023-11-19T01:14:36;13.90;99.90
16871;DHT22;8552;48.120;-1.456;2023-11-19T01:17:01;13.90;99.90
16871;DHT22;8552;48.120;-1.456;2023-11-19T01:19:27;14.00;99.90
16871;DHT22;8552;48.120;-1.456;2023-11-19T01:21:54;13.90;99.90
16871;DHT22;8552;48.120;-1.456;2023-11-19T01:24:20;14.10;99.90
16871;DHT22;8552;48.120;-1.456;2023-11-19T01:26:46;13.90;99.90
16871;DHT22;8552;48.120;-1.456;2023-11-19T01:29:14;13.90;99.90
16871;DHT22;8552;48.120;-1.456;2023-11-19T01:31:43;13.90;99.90
16871;DHT22;8552;48.120;-1.456;2023-11-19T01:34:10;13.90;99.90
16871;DHT22;8552;48.120;-1.456;2023-11-19T01:36:37;14.00;99.90
16871;DHT22;8552;48.120;-1.456;2023-11-19T01:39:02;14.00;99.90
16871;DHT22;8552;48.120;-1.456;2023-11-19T01:41:36;13.80;99.90
16871;DHT22;8552;48.120;-1.456;2023-11-19T01:44:02;13.90;99.90
16871;DHT22;8552;48.120;-1.456;2023-11-19T01:46:28;13.90;99.90
16871;DHT22;8552;48.120;-1.456;2023-11-19T01:48:58;13.80;99.90
16871;DHT22;8552;48.120;-1.456;2023-11-19T01:51:24;13.90;99.90
16871;DHT22;8552;48.120;-1.456;2023-11-19T01:53:50;13.80;99.90
16871;DHT22;8552;48.120;-1.456;2023-11-19T01:56:16;13.80;99.90
16871;DHT22;8552;48.120;-1.456;2023-11-19T01:58:43;14.00;99.90
16871;DHT22;8552;48.120;-1.456;2023-11-19T02:01:11;13.70;99.90
16871;DHT22;8552;48.120;-1.456;2023-11-19T02:03:38;13.80;99.90
16871;DHT22;8552;48.120;-1.456;2023-11-19T02:06:04;13.60;99.90
16871;DHT22;8552;48.120;-1.456;2023-11-19T02:08:30;13.70;99.90
16871;DHT22;8552;48.120;-1.456;2023-11-19T02:10:56;13.70;99.90
16871;DHT22;8552;48.120;-1.456;2023-11-19T02:13:26;13.50;99.90
16871;DHT22;8552;48.120;-1.456;2023-11-19T02:15:52;13.50;99.90
16871;DHT22;8552;48.120;-1.456;2023-11-19T02:18:18;13.50;99.90
16871;DHT22;8552;48.120;-1.456;2023-11-19T02:20:45;13.80;99.90
16871;DHT22;8552;48.120;-1.456;2023-11-19T02:23:12;13.50;99.90
16871;DHT22;8552;48.120;-1.456;2023-11-19T02:25:39;13.50;99.90
16871;DHT22;8552;48.120;-1.456;2023-11-19T02:28:06;13.40;99.90
16871;DHT22;8552;48.120;-1.456;2023-11-19T02:30:32;13.40;99.90
16871;DHT22;8552;48.120;-1.456;2023-11-19T02:33:01;13.30;99.90
16871;DHT22;8552;48.120;-1.456;2023-11-19T02:35:30;13.30;99.90
16871;DHT22;8552;48.120;-1.456;2023-11-19T02:37:57;13.40;99.90
16871;DHT22;8552;48.120;-1.456;2023-11-19T02:40:23;13.30;99.90
16871;DHT22;8552;48.120;-1.456;2023-11-19T02:42:52;13.30;99.90
16871;DHT22;8552;48.120;-1.456;2023-11-19T02:45:18;13.10;99.90
16871;DHT22;8552;48.120;-1.456;2023-11-19T02:47:44;13.10;99.90
16871;DHT22;8552;48.120;-1.456;2023-11-19T02:50:10;13.00;99.90
16871;DHT22;8552;48.120;-1.456;2023-11-19T02:52:41;12.90;99.90
16871;DHT22;8552;48.120;-1.456;2023-11-19T02:55:07;12.90;99.90
16871;DHT22;8552;48.120;-1.456;2023-11-19T02:57:38;12.90;99.90
16871;DHT22;8552;48.120;-1.456;2023-11-19T03:00:06;12.90;99.90
16871;DHT22;8552;48.120;-1.456;2023-11-19T03:02:40;12.80;99.90
16871;DHT22;8552;48.120;-1.456;2023-11-19T03:05:11;12.80;99.90
16871;DHT22;8552;48.120;-1.456;2023-11-19T03:07:37;12.80;99.90
16871;DHT22;8552;48.120;-1.456;2023-11-19T03:10:03;12.80;99.90
16871;DHT22;8552;48.120;-1.456;2023-11-19T03:12:31;12.80;99.90
16871;DHT22;8552;48.120;-1.456;2023-11-19T03:14:57;12.70;99.90
16871;DHT22;8552;48.120;-1.456;2023-11-19T03:17:22;12.70;99.90
16871;DHT22;8552;48.120;-1.456;2023-11-19T03:19:49;12.60;99.90
16871;DHT22;8552;48.120;-1.456;2023-11-19T03:22:15;12.50;99.90
16871;DHT22;8552;48.120;-1.456;2023-11-19T03:24:41;12.50;99.90
16871;DHT22;8552;48.120;-1.456;2023-11-19T03:27:06;12.40;99.90
16871;DHT22;8552;48.120;-1.456;2023-11-19T03:29:32;12.50;99.90
16871;DHT22;8552;48.120;-1.456;2023-11-19T03:31:58;12.40;99.90
16871;DHT22;8552;48.120;-1.456;2023-11-19T03:34:23;12.30;99.90
16871;DHT22;8552;48.120;-1.456;2023-11-19T03:36:49;12.40;99.90
16871;DHT22;8552;48.120;-1.456;2023-11-19T03:39:14;12.20;99.90
16871;DHT22;8552;48.120;-1.456;2023-11-19T03:41:40;12.20;99.90
16871;DHT22;8552;48.120;-1.456;2023-11-19T03:44:06;12.10;99.90
16871;DHT22;8552;48.120;-1.456;2023-11-19T03:46:31;12.20;99.90
16871;DHT22;8552;48.120;-1.456;2023-11-19T03:48:57;12.20;99.90
16871;DHT22;8552;48.120;-1.456;2023-11-19T03:51:23;12.10;99.90
16871;DHT22;8552;48.120;-1.456;2023-11-19T03:53:48;12.10;99.90
16871;DHT22;8552;48.120;-1.456;2023-11-19T03:56:14;12.10;99.90
16871;DHT22;8552;48.120;-1.456;2023-11-19T03:58:39;12.10;99.90
16871;DHT22;8552;48.120;-1.456;2023-11-19T04:01:05;12.10;99.90
16871;DHT22;8552;48.120;-1.456;2023-11-19T04:03:31;12.00;99.90
16871;DHT22;8552;48.120;-1.456;2023-11-19T04:05:57;11.90;99.90
16871;DHT22;8552;48.120;-1.456;2023-11-19T04:08:23;12.00;99.90
16871;DHT22;8552;48.120;-1.456;2023-11-19T04:10:48;11.90;99.90
16871;DHT22;8552;48.120;-1.456;2023-11-19T04:13:14;11.90;99.90
16871;DHT22;8552;48.120;-1.456;2023-11-19T04:15:40;11.90;99.90
16871;DHT22;8552;48.120;-1.456;2023-11-19T04:18:05;11.90;99.90
16871;DHT22;8552;48.120;-1.456;2023-11-19T04:20:31;11.80;99.90
16871;DHT22;8552;48.120;-1.456;2023-11-19T04:22:57;11.80;99.90
16871;DHT22;8552;48.120;-1.456;2023-11-19T04:25:23;11.80;99.90
16871;DHT22;8552;48.120;-1.456;2023-11-19T04:27:51;11.80;99.90
16871;DHT22;8552;48.120;-1.456;2023-11-19T04:30:17;11.80;99.90
16871;DHT22;8552;48.120;-1.456;2023-11-19T04:32:47;11.80;99.90
16871;DHT22;8552;48.120;-1.456;2023-11-19T04:35:14;11.80;99.90
16871;DHT22;8552;48.120;-1.456;2023-11-19T04:37:41;11.70;99.90
16871;DHT22;8552;48.120;-1.456;2023-11-19T04:40:07;11.70;99.90
16871;DHT22;8552;48.120;-1.456;2023-11-19T04:42:33;11.80;99.90
16871;DHT22;8552;48.120;-1.456;2023-11-19T04:44:58;11.70;99.90
16871;DHT22;8552;48.120;-1.456;2023-11-19T04:47:24;11.70;99.90
16871;DHT22;8552;48.120;-1.456;2023-11-19T04:49:50;11.60;99.90
16871;DHT22;8552;48.120;-1.456;2023-11-19T04:52:16;11.70;99.90
16871;DHT22;8552;48.120;-1.456;2023-11-19T04:54:42;11.70;99.90
16871;DHT22;8552;48.120;-1.456;2023-11-19T04:57:10;11.50;99.90
16871;DHT22;8552;48.120;-1.456;2023-11-19T04:59:39;11.60;99.90
16871;DHT22;8552;48.120;-1.456;2023-11-19T05:02:05;11.50;99.90
16871;DHT22;8552;48.120;-1.456;2023-11-19T05:04:31;11.50;99.90
16871;DHT22;8552;48.120;-1.456;2023-11-19T05:06:56;11.50;99.90
16871;DHT22;8552;48.120;-1.456;2023-11-19T05:09:23;11.40;99.90
16871;DHT22;8552;48.120;-1.456;2023-11-19T05:11:48;11.30;99.90
16871;DHT22;8552;48.120;-1.456;2023-11-19T05:14:14;11.20;99.90
16871;DHT22;8552;48.120;-1.456;2023-11-19T05:16:40;11.20;99.90
16871;DHT22;8552;48.120;-1.456;2023-11-19T05:19:06;11.20;99.90
16871;DHT22;8552;48.120;-1.456;2023-11-19T05:21:32;11.20;99.90
16871;DHT22;8552;48.120;-1.456;2023-11-19T05:23:58;11.10;99.90
16871;DHT22;8552;48.120;-1.456;2023-11-19T05:26:24;11.10;99.90
16871;DHT22;8552;48.120;-1.456;2023-11-19T05:28:50;11.00;99.90
16871;DHT22;8552;48.120;-1.456;2023-11-19T05:31:17;11.00;99.90
16871;DHT22;8552;48.120;-1.456;2023-11-19T05:33:43;11.00;99.90
16871;DHT22;8552;48.120;-1.456;2023-11-19T05:36:11;10.90;99.90
16871;DHT22;8552;48.120;-1.456;2023-11-19T05:38:37;10.90;99.90
16871;DHT22;8552;48.120;-1.456;2023-11-19T05:41:03;10.90;99.90
16871;DHT22;8552;48.120;-1.456;2023-11-19T05:43:28;10.90;99.90
16871;DHT22;8552;48.120;-1.456;2023-11-19T05:45:54;10.90;99.90
16871;DHT22;8552;48.120;-1.456;2023-11-19T05:48:20;11.00;99.90
16871;DHT22;8552;48.120;-1.456;2023-11-19T05:50:45;11.10;99.90
16871;DHT22;8552;48.120;-1.456;2023-11-19T05:53:11;11.10;99.90
16871;DHT22;8552;48.120;-1.456;2023-11-19T05:55:40;11.00;99.90
16871;DHT22;8552;48.120;-1.456;2023-11-19T05:58:12;11.10;99.90
16871;DHT22;8552;48.120;-1.456;2023-11-19T06:00:38;11.10;99.90
16871;DHT22;8552;48.120;-1.456;2023-11-19T06:03:06;11.10;99.90
16871;DHT22;8552;48.120;-1.456;2023-11-19T06:05:32;11.10;99.90
16871;DHT22;8552;48.120;-1.456;2023-11-19T06:07:58;11.20;99.90
16871;DHT22;8552;48.120;-1.456;2023-11-19T06:10:23;11.20;99.90
16871;DHT22;8552;48.120;-1.456;2023-11-19T06:12:58;11.10;99.90
16871;DHT22;8552;48.120;-1.456;2023-11-19T06:15:28;11.20;99.90
16871;DHT22;8552;48.120;-1.456;2023-11-19T06:17:54;11.20;99.90
16871;DHT22;8552;48.120;-1.456;2023-11-19T06:20:20;11.20;99.90
16871;DHT22;8552;48.120;-1.456;2023-11-19T06:22:46;11.20;99.90
16871;DHT22;8552;48.120;-1.456;2023-11-19T06:25:12;11.30;99.90
16871;DHT22;8552;48.120;-1.456;2023-11-19T06:27:40;11.30;99.90
16871;DHT22;8552;48.120;-1.456;2023-11-19T06:30:07;11.40;99.90
16871;DHT22;8552;48.120;-1.456;2023-11-19T06:32:32;11.50;99.90
16871;DHT22;8552;48.120;-1.456;2023-11-19T06:34:58;11.40;99.90
16871;DHT22;8552;48.120;-1.456;2023-11-19T06:37:24;11.60;99.90
16871;DHT22;8552;48.120;-1.456;2023-11-19T06:39:49;11.50;99.90
16871;DHT22;8552;48.120;-1.456;2023-11-19T06:42:16;11.50;99.90
16871;DHT22;8552;48.120;-1.456;2023-11-19T06:44:42;11.60;99.90
16871;DHT22;8552;48.120;-1.456;2023-11-19T06:47:08;11.60;99.90
16871;DHT22;8552;48.120;-1.456;2023-11-19T06:49:33;11.60;99.90
16871;DHT22;8552;48.120;-1.456;2023-11-19T06:51:59;11.70;99.90
16871;DHT22;8552;48.120;-1.456;2023-11-19T06:54:25;11.70;99.90
16871;DHT22;8552;48.120;-1.456;2023-11-19T06:56:50;11.70;99.90
16871;DHT22;8552;48.120;-1.456;2023-11-19T06:59:16;11.70;99.90
16871;DHT22;8552;48.120;-1.456;2023-11-19T07:01:42;11.70;99.90
16871;DHT22;8552;48.120;-1.456;2023-11-19T07:04:11;11.70;99.90
16871;DHT22;8552;48.120;-1.456;2023-11-19T07:06:38;11.60;99.90
16871;DHT22;8552;48.120;-1.456;2023-11-19T07:09:04;11.70;99.90
16871;DHT22;8552;48.120;-1.456;2023-11-19T07:11:38;11.70;99.90
16871;DHT22;8552;48.120;-1.456;2023-11-19T07:14:05;11.60;99.90
16871;DHT22;8552;48.120;-1.456;2023-11-19T07:16:32;11.60;99.90
16871;DHT22;8552;48.120;-1.456;2023-11-19T07:19:03;11.50;99.90
16871;DHT22;8552;48.120;-1.456;2023-11-19T07:21:28;11.60;99.90
16871;DHT22;8552;48.120;-1.456;2023-11-19T07:23:55;11.50;99.90
16871;DHT22;8552;48.120;-1.456;2023-11-19T07:26:21;11.50;99.90
16871;DHT22;8552;48.120;-1.456;2023-11-19T07:28:47;11.50;99.90
16871;DHT22;8552;48.120;-1.456;2023-11-19T07:31:13;11.50;99.90
16871;DHT22;8552;48.120;-1.456;2023-11-19T07:33:42;11.40;99.90
16871;DHT22;8552;48.120;-1.456;2023-11-19T07:36:11;11.50;99.90
16871;DHT22;8552;48.120;-1.456;2023-11-19T07:38:37;11.60;99.90
16871;DHT22;8552;48.120;-1.456;2023-11-19T07:41:04;11.40;99.90
16871;DHT22;8552;48.120;-1.456;2023-11-19T07:43:30;11.60;99.90
16871;DHT22;8552;48.120;-1.456;2023-11-19T07:45:56;11.60;99.90
16871;DHT22;8552;48.120;-1.456;2023-11-19T07:48:24;11.60;99.90
16871;DHT22;8552;48.120;-1.456;2023-11-19T07:50:50;11.60;99.90
16871;DHT22;8552;48.120;-1.456;2023-11-19T07:53:19;11.60;99.90
16871;DHT22;8552;48.120;-1.456;2023-11-19T07:55:45;11.70;99.90
16871;DHT22;8552;48.120;-1.456;2023-11-19T07:58:11;11.70;99.90
16871;DHT22;8552;48.120;-1.456;2023-11-19T08:00:37;11.70;99.90
16871;DHT22;8552;48.120;-1.456;2023-11-19T08:03:04;11.70;99.90
16871;DHT22;8552;48.120;-1.456;2023-11-19T08:05:31;11.80;99.90
16871;DHT22;8552;48.120;-1.456;2023-11-19T08:07:57;11.80;99.90
16871;DHT22;8552;48.120;-1.456;2023-11-19T08:10:23;11.80;99.90
16871;DHT22;8552;48.120;-1.456;2023-11-19T08:12:49;11.80;99.90
16871;DHT22;8552;48.120;-1.456;2023-11-19T08:15:15;11.80;99.90
16871;DHT22;8552;48.120;-1.456;2023-11-19T08:17:41;11.80;99.90
16871;DHT22;8552;48.120;-1.456;2023-11-19T08:20:09;12.00;99.90
16871;DHT22;8552;48.120;-1.456;2023-11-19T08:22:37;12.10;99.90
16871;DHT22;8552;48.120;-1.456;2023-11-19T08:25:07;12.00;99.90
16871;DHT22;8552;48.120;-1.456;2023-11-19T08:27:33;12.00;99.90
16871;DHT22;8552;48.120;-1.456;2023-11-19T08:29:59;12.10;99.90
16871;DHT22;8552;48.120;-1.456;2023-11-19T08:32:26;12.20;99.90
16871;DHT22;8552;48.120;-1.456;2023-11-19T08:34:52;12.10;99.90
16871;DHT22;8552;48.120;-1.456;2023-11-19T08:37:18;12.20;99.90
16871;DHT22;8552;48.120;-1.456;2023-11-19T08:39:52;12.20;99.90
16871;DHT22;8552;48.120;-1.456;2023-11-19T08:42:21;12.40;99.90
16871;DHT22;8552;48.120;-1.456;2023-11-19T08:44:50;12.30;99.90
16871;DHT22;8552;48.120;-1.456;2023-11-19T08:47:19;12.30;99.90
16871;DHT22;8552;48.120;-1.456;2023-11-19T08:49:45;12.40;99.90
16871;DHT22;8552;48.120;-1.456;2023-11-19T08:52:11;12.50;99.90
16871;DHT22;8552;48.120;-1.456;2023-11-19T08:54:37;12.40;99.90
16871;DHT22;8552;48.120;-1.456;2023-11-19T08:57:03;12.50;99.90
16871;DHT22;8552;48.120;-1.456;2023-11-19T08:59:39;12.70;99.90
16871;DHT22;8552;48.120;-1.456;2023-11-19T09:02:06;12.70;99.90
16871;DHT22;8552;48.120;-1.456;2023-11-19T09:04:32;12.70;99.90
16871;DHT22;8552;48.120;-1.456;2023-11-19T09:06:59;12.70;99.90
16871;DHT22;8552;48.120;-1.456;2023-11-19T09:09:24;12.90;99.90
16871;DHT22;8552;48.120;-1.456;2023-11-19T09:11:51;12.90;99.90
16871;DHT22;8552;48.120;-1.456;2023-11-19T09:14:17;12.80;99.90
16871;DHT22;8552;48.120;-1.456;2023-11-19T09:16:43;13.00;99.90
16871;DHT22;8552;48.120;-1.456;2023-11-19T09:19:09;13.00;99.90
16871;DHT22;8552;48.120;-1.456;2023-11-19T09:21:35;13.00;99.90
16871;DHT22;8552;48.120;-1.456;2023-11-19T09:24:04;13.20;99.90
16871;DHT22;8552;48.120;-1.456;2023-11-19T09:26:30;13.10;99.90
16871;DHT22;8552;48.120;-1.456;2023-11-19T09:28:56;13.00;99.90
16871;DHT22;8552;48.120;-1.456;2023-11-19T09:31:22;13.00;99.90
16871;DHT22;8552;48.120;-1.456;2023-11-19T09:33:48;13.20;99.90
16871;DHT22;8552;48.120;-1.456;2023-11-19T09:36:13;13.20;99.90
16871;DHT22;8552;48.120;-1.456;2023-11-19T09:38:42;13.30;99.90
16871;DHT22;8552;48.120;-1.456;2023-11-19T09:41:09;13.20;99.90
16871;DHT22;8552;48.120;-1.456;2023-11-19T09:43:37;13.20;99.90
16871;DHT22;8552;48.120;-1.456;2023-11-19T09:46:05;13.20;99.90
16871;DHT22;8552;48.120;-1.456;2023-11-19T09:48:35;13.30;99.90
16871;DHT22;8552;48.120;-1.456;2023-11-19T09:51:02;13.20;99.90
16871;DHT22;8552;48.120;-1.456;2023-11-19T09:53:29;13.20;99.90
16871;DHT22;8552;48.120;-1.456;2023-11-19T09:55:56;13.00;99.90
16871;DHT22;8552;48.120;-1.456;2023-11-19T09:58:21;13.30;99.90
16871;DHT22;8552;48.120;-1.456;2023-11-19T10:00:49;13.20;99.90
16871;DHT22;8552;48.120;-1.456;2023-11-19T10:03:15;13.30;99.90
16871;DHT22;8552;48.120;-1.456;2023-11-19T10:05:41;13.20;99.90
16871;DHT22;8552;48.120;-1.456;2023-11-19T10:08:07;13.30;99.90
16871;DHT22;8552;48.120;-1.456;2023-11-19T10:10:39;13.50;99.90
16871;DHT22;8552;48.120;-1.456;2023-11-19T10:13:05;13.60;99.90
16871;DHT22;8552;48.120;-1.456;2023-11-19T10:15:36;13.60;99.90
16871;DHT22;8552;48.120;-1.456;2023-11-19T10:18:02;13.90;99.90
16871;DHT22;8552;48.120;-1.456;2023-11-19T10:20:35;13.80;99.90
16871;DHT22;8552;48.120;-1.456;2023-11-19T10:23:01;13.80;99.90
16871;DHT22;8552;48.120;-1.456;2023-11-19T10:25:28;14.00;99.90
16871;DHT22;8552;48.120;-1.456;2023-11-19T10:27:55;13.80;99.90
16871;DHT22;8552;48.120;-1.456;2023-11-19T10:30:28;13.90;99.90
16871;DHT22;8552;48.120;-1.456;2023-11-19T10:35:56;14.00;99.90
16871;DHT22;8552;48.120;-1.456;2023-11-19T10:38:23;14.10;99.90
16871;DHT22;8552;48.120;-1.456;2023-11-19T10:40:50;13.90;99.90
16871;DHT22;8552;48.120;-1.456;2023-11-19T10:43:19;14.10;99.90
16871;DHT22;8552;48.120;-1.456;2023-11-19T10:45:46;14.10;99.90
16871;DHT22;8552;48.120;-1.456;2023-11-19T10:48:12;14.30;99.90
16871;DHT22;8552;48.120;-1.456;2023-11-19T10:50:40;14.30;99.90
16871;DHT22;8552;48.120;-1.456;2023-11-19T10:53:08;14.20;99.90
16871;DHT22;8552;48.120;-1.456;2023-11-19T10:55:37;14.50;99.90
16871;DHT22;8552;48.120;-1.456;2023-11-19T10:58:09;14.20;99.90
16871;DHT22;8552;48.120;-1.456;2023-11-19T11:00:52;14.20;99.90
16871;DHT22;8552;48.120;-1.456;2023-11-19T11:03:21;14.40;99.90
16871;DHT22;8552;48.120;-1.456;2023-11-19T11:05:51;14.40;99.90
16871;DHT22;8552;48.120;-1.456;2023-11-19T11:08:18;14.50;99.90
16871;DHT22;8552;48.120;-1.456;2023-11-19T11:10:55;14.60;99.90
16871;DHT22;8552;48.120;-1.456;2023-11-19T11:13:25;14.70;99.90
16871;DHT22;8552;48.120;-1.456;2023-11-19T11:15:53;14.80;99.90
16871;DHT22;8552;48.120;-1.456;2023-11-19T11:18:21;14.80;99.90
16871;DHT22;8552;48.120;-1.456;2023-11-19T11:20:49;15.00;99.90
16871;DHT22;8552;48.120;-1.456;2023-11-19T11:37:37;14.60;99.90
16871;DHT22;8552;48.120;-1.456;2023-11-19T11:40:05;14.70;99.90
16871;DHT22;8552;48.120;-1.456;2023-11-19T11:42:36;14.70;99.90
16871;DHT22;8552;48.120;-1.456;2023-11-19T11:45:06;14.70;99.90
16871;DHT22;8552;48.120;-1.456;2023-11-19T11:50:11;14.70;99.90
16871;DHT22;8552;48.120;-1.456;2023-11-19T11:55:29;14.70;99.90
16871;DHT22;8552;48.120;-1.456;2023-11-19T11:57:59;14.90;99.90
16871;DHT22;8552;48.120;-1.456;2023-11-19T12:00:30;14.90;99.90
16871;DHT22;8552;48.120;-1.456;2023-11-19T12:02:58;15.00;99.90
16871;DHT22;8552;48.120;-1.456;2023-11-19T12:05:24;15.00;99.90
16871;DHT22;8552;48.120;-1.456;2023-11-19T12:08:00;14.90;99.90
16871;DHT22;8552;48.120;-1.456;2023-11-19T12:10:29;14.80;99.90
16871;DHT22;8552;48.120;-1.456;2023-11-19T12:13:00;14.80;99.90
16871;DHT22;8552;48.120;-1.456;2023-11-19T12:15:26;14.70;99.90
16871;DHT22;8552;48.120;-1.456;2023-11-19T12:17:54;14.80;99.90
16871;DHT22;8552;48.120;-1.456;2023-11-19T12:20:24;14.70;99.90
16871;DHT22;8552;48.120;-1.456;2023-11-19T12:22:51;15.10;99.90
16871;DHT22;8552;48.120;-1.456;2023-11-19T12:25:17;15.10;99.90
16871;DHT22;8552;48.120;-1.456;2023-11-19T12:27:48;15.40;99.90
16871;DHT22;8552;48.120;-1.456;2023-11-19T12:30:24;15.60;99.90
16871;DHT22;8552;48.120;-1.456;2023-11-19T12:32:51;15.60;99.90
16871;DHT22;8552;48.120;-1.456;2023-11-19T12:35:19;15.70;99.90
16871;DHT22;8552;48.120;-1.456;2023-11-19T12:37:51;15.90;99.90
16871;DHT22;8552;48.120;-1.456;2023-11-19T12:40:18;15.90;99.90
16871;DHT22;8552;48.120;-1.456;2023-11-19T12:42:45;15.90;99.90
16871;DHT22;8552;48.120;-1.456;2023-11-19T12:45:12;15.90;99.90
16871;DHT22;8552;48.120;-1.456;2023-11-19T12:47:39;15.80;99.90
16871;DHT22;8552;48.120;-1.456;2023-11-19T12:50:07;15.90;99.90
16871;DHT22;8552;48.120;-1.456;2023-11-19T12:52:37;15.80;99.90
16871;DHT22;8552;48.120;-1.456;2023-11-19T12:57:48;15.60;99.90
16871;DHT22;8552;48.120;-1.456;2023-11-19T13:02:51;15.90;99.90
